Terminal Aerodrome Forecast
Issued by NWS Charleston, WV

Home | Current Version | Previous Version | Text Only | Print | Product List | Glossary On
Versions: 1 2 3 4 5 6 7 8 9 10 11 12 13 14 15 16 17 18 19 20
000
FTUS41 KRLX 250200 AAA
TAFCRW
TAF AMD
KCRW 250248Z 2503/2524 25009G19KT P6SM BKN015 OVC025
     FM250500 24005KT 6SM BR BKN012
     FM251500 21004KT P6SM SCT020 BKN040
     FM251700 19005KT P6SM BKN060=

USA.gov is the U.S. government's official web portal to all federal, state and local government web resources and services.